East Berlin, New Jersey
Current Conditions -  °F | °C
As of 4:54 AM on Saturday 22 Nov 2014 (Local Time) from KVAY Reporting Station
Clear Clear  
Wind Chill: 21°   Ceiling: Unl
Heat Index: 21°   Visibility: 10mi
Dew Point: 13°   Wind: 3mph
Humidity: 71%   Direction: 240°WSW
Pressure: 30.52"   Gusts: NA
Location:  39.7587°N, 74.9349°W
Report Text: KVAY 220954Z AUTO 24003KT 10SM CLR M06/M11 A3052 RMK AO2 SLP336 T10611106
Loading
Personal Weather Stations






























Interactive Weather Map New forecast layout! Learn more

10-Day Weather Forecast

Advertisements
Track Severe Weather on mobile